Aviation Digital Data Service (ADDS)

Output produced by TAFs form (1518 UTC 31 August 2015)
found at http://www.aviationweather.gov/adds/tafs/
 
KGFL 311141Z 3112/0112 19003KT P6SM SKC 
     TEMPO 3112/3113 3SM BR 
     FM311700 23008KT P6SM SCT050 
     FM010000 VRB03KT P6SM SKC 
     FM010300 00000KT 3SM BR SKC 
     FM010800 00000KT 1/2SM FG VV002